createdAt,value
2023-03-08T00:01:20.588Z,12.70
2023-03-08T00:03:47.660Z,10.67
2023-03-08T00:06:16.476Z,10.63
2023-03-08T00:08:43.155Z,11.40
2023-03-08T00:11:12.452Z,10.63
2023-03-08T00:13:39.647Z,12.90
2023-03-08T00:16:08.447Z,12.00
2023-03-08T00:18:36.262Z,9.03
2023-03-08T00:21:05.138Z,8.93
2023-03-08T00:23:31.669Z,9.50
2023-03-08T00:25:58.761Z,10.17
2023-03-08T00:28:25.988Z,10.40
2023-03-08T00:31:00.253Z,10.83
2023-03-08T00:33:27.061Z,8.07
2023-03-08T00:36:02.145Z,11.27
2023-03-08T00:38:30.387Z,10.33
2023-03-08T00:40:56.928Z,9.87
2023-03-08T00:43:23.722Z,10.13
2023-03-08T00:45:53.190Z,9.40
2023-03-08T00:48:20.775Z,12.30
2023-03-08T00:50:47.654Z,9.60
2023-03-08T00:53:14.869Z,11.80
2023-03-08T00:55:49.503Z,8.87
2023-03-08T00:58:16.227Z,7.90
2023-03-08T01:00:42.835Z,12.77
2023-03-08T01:03:09.377Z,9.97
2023-03-08T01:05:47.591Z,8.17
2023-03-08T01:08:15.223Z,9.80
2023-03-08T01:10:48.021Z,11.00
2023-03-08T01:13:14.515Z,11.50
2023-03-08T01:15:41.074Z,10.07
2023-03-08T01:18:07.603Z,9.10
2023-03-08T01:20:34.227Z,9.23
2023-03-08T01:23:00.766Z,11.53
2023-03-08T01:25:27.864Z,8.40
2023-03-08T01:27:54.346Z,12.53
2023-03-08T01:30:21.250Z,10.87
2023-03-08T01:32:48.080Z,10.93
2023-03-08T01:35:14.560Z,11.37
2023-03-08T01:37:41.120Z,9.80
2023-03-08T01:40:16.756Z,12.33
2023-03-08T01:42:43.244Z,9.20
2023-03-08T01:45:47.381Z,11.43
2023-03-08T01:48:15.977Z,9.80
2023-03-08T01:50:45.857Z,9.57
2023-03-08T01:53:13.971Z,10.37
2023-03-08T01:55:41.244Z,10.10
2023-03-08T01:58:08.065Z,10.73
2023-03-08T02:00:34.536Z,9.67
2023-03-08T02:03:07.452Z,10.40
2023-03-08T02:05:36.640Z,8.67
2023-03-08T02:08:05.645Z,9.20
2023-03-08T02:10:32.326Z,11.90
2023-03-08T02:12:58.964Z,10.63
2023-03-08T02:15:25.530Z,10.07
2023-03-08T02:17:52.072Z,10.93
2023-03-08T02:20:25.845Z,11.47
2023-03-08T02:22:53.306Z,10.23
2023-03-08T02:25:27.297Z,11.60
2023-03-08T02:27:54.607Z,10.87
2023-03-08T02:30:27.964Z,9.40
2023-03-08T02:32:54.461Z,9.37
2023-03-08T02:35:20.982Z,10.00
2023-03-08T02:37:47.804Z,10.80
2023-03-08T02:40:14.693Z,10.13
2023-03-08T02:42:41.527Z,10.23
2023-03-08T02:45:08.939Z,9.67
2023-03-08T02:47:35.836Z,10.07
2023-03-08T02:50:02.301Z,14.47
2023-03-08T02:52:28.814Z,8.43
2023-03-08T02:54:55.298Z,8.50
2023-03-08T02:57:21.946Z,10.57
2023-03-08T02:59:49.058Z,8.77
2023-03-08T03:02:15.620Z,8.63
2023-03-08T03:04:42.255Z,9.13
2023-03-08T03:07:09.012Z,8.30
2023-03-08T03:09:35.982Z,9.43
2023-03-08T03:12:02.518Z,6.27
2023-03-08T03:14:29.930Z,7.90
2023-03-08T03:16:56.701Z,6.50
2023-03-08T03:19:23.207Z,6.53
2023-03-08T03:21:49.698Z,7.03
2023-03-08T03:24:16.336Z,6.80
2023-03-08T03:26:42.883Z,7.97
2023-03-08T03:29:09.482Z,8.17
2023-03-08T03:31:36.101Z,9.33
2023-03-08T03:34:02.805Z,9.13
2023-03-08T03:36:29.442Z,9.50
2023-03-08T03:38:55.919Z,10.63
2023-03-08T03:41:23.599Z,12.40
2023-03-08T03:43:51.321Z,11.10
2023-03-08T03:46:20.449Z,11.80
2023-03-08T03:48:47.621Z,13.13
2023-03-08T03:51:17.530Z,10.23
2023-03-08T03:53:44.582Z,13.57
2023-03-08T03:56:15.189Z,11.60
2023-03-08T03:58:42.634Z,11.83
2023-03-08T04:01:24.639Z,13.13
2023-03-08T04:03:51.826Z,12.30
2023-03-08T04:06:22.361Z,11.60
2023-03-08T04:08:49.201Z,13.73
2023-03-08T04:11:19.288Z,11.30
2023-03-08T04:13:46.336Z,12.30
2023-03-08T04:16:26.786Z,15.20
2023-03-08T04:19:00.761Z,15.40
2023-03-08T04:21:28.245Z,13.50
2023-03-08T04:23:55.105Z,13.00
2023-03-08T04:26:22.277Z,15.53
2023-03-08T04:28:49.167Z,15.10
2023-03-08T04:31:16.268Z,16.47
2023-03-08T04:33:42.867Z,14.30
2023-03-08T04:36:10.093Z,13.80
2023-03-08T04:38:36.664Z,15.53
2023-03-08T04:41:11.957Z,16.40
2023-03-08T04:43:40.202Z,17.53
2023-03-08T04:46:07.872Z,16.57
2023-03-08T04:48:34.421Z,17.00
2023-03-08T04:51:03.380Z,17.73
2023-03-08T04:53:31.399Z,18.90
2023-03-08T04:56:00.529Z,15.43
2023-03-08T04:58:30.664Z,16.23
2023-03-08T05:00:57.275Z,16.60
2023-03-08T05:03:23.911Z,20.83
2023-03-08T05:05:56.036Z,17.30
2023-03-08T05:08:23.117Z,18.23
2023-03-08T05:10:55.155Z,20.60
2023-03-08T05:13:21.649Z,19.73
2023-03-08T05:15:48.235Z,18.83
2023-03-08T05:18:14.789Z,16.40
2023-03-08T05:20:41.963Z,17.43
2023-03-08T05:23:08.484Z,16.43
2023-03-08T05:25:34.955Z,18.20
2023-03-08T05:28:01.456Z,17.97
2023-03-08T05:30:27.961Z,17.60
2023-03-08T05:32:54.493Z,18.47
2023-03-08T05:35:21.433Z,16.13
2023-03-08T05:37:47.927Z,15.07
2023-03-08T05:40:14.446Z,18.90
2023-03-08T05:42:40.961Z,18.03
2023-03-08T05:45:08.417Z,17.67
2023-03-08T05:47:35.006Z,21.47
2023-03-08T05:50:01.581Z,17.50
2023-03-08T05:52:29.830Z,17.60
2023-03-08T05:54:56.299Z,22.63
2023-03-08T05:57:22.833Z,17.83
2023-03-08T05:59:49.434Z,19.60
2023-03-08T06:02:15.970Z,21.00
2023-03-08T06:04:42.609Z,20.17
2023-03-08T06:07:09.264Z,20.97
2023-03-08T06:09:35.722Z,19.07
2023-03-08T06:12:02.166Z,19.03
2023-03-08T06:14:28.704Z,17.13
2023-03-08T06:16:55.196Z,16.00
2023-03-08T06:19:21.737Z,16.47
2023-03-08T06:21:48.229Z,16.77
2023-03-08T06:24:15.436Z,10.03
2023-03-08T06:26:41.906Z,11.80
2023-03-08T06:29:08.480Z,10.33
2023-03-08T06:31:34.958Z,9.67
2023-03-08T06:34:01.445Z,10.70
2023-03-08T06:36:27.988Z,7.83
2023-03-08T06:38:54.757Z,9.97
2023-03-08T06:41:21.911Z,7.77
2023-03-08T06:43:48.862Z,9.23
2023-03-08T06:46:18.116Z,8.27
2023-03-08T06:48:45.603Z,9.03
2023-03-08T06:51:12.475Z,7.77
2023-03-08T06:53:39.405Z,6.53
2023-03-08T06:56:08.633Z,6.30
2023-03-08T06:58:36.688Z,6.40
2023-03-08T07:01:05.787Z,6.50
2023-03-08T07:03:33.310Z,6.90
2023-03-08T07:06:01.487Z,6.60
2023-03-08T07:08:28.184Z,5.90
2023-03-08T07:10:54.798Z,7.20
2023-03-08T07:13:23.871Z,10.00
2023-03-08T07:15:51.353Z,4.63
2023-03-08T07:18:18.937Z,5.10
2023-03-08T07:20:45.807Z,5.13
2023-03-08T07:23:12.305Z,6.07
2023-03-08T07:25:40.230Z,7.77
2023-03-08T07:28:06.759Z,5.63
2023-03-08T07:30:33.357Z,5.87
2023-03-08T07:32:59.929Z,6.20
2023-03-08T07:35:26.457Z,4.70
2023-03-08T07:37:53.123Z,5.63
2023-03-08T07:40:19.846Z,4.50
2023-03-08T07:42:46.801Z,4.70
2023-03-08T07:45:14.287Z,4.70
2023-03-08T07:47:41.529Z,6.03
2023-03-08T07:50:09.367Z,3.27
2023-03-08T07:52:35.880Z,5.23
2023-03-08T07:55:03.605Z,5.40
2023-03-08T07:57:30.142Z,3.93
2023-03-08T07:59:56.648Z,6.03
2023-03-08T08:02:23.197Z,4.30
2023-03-08T08:04:50.751Z,5.57
2023-03-08T08:07:18.049Z,6.53
2023-03-08T08:09:44.561Z,3.87
2023-03-08T08:12:11.345Z,4.97
2023-03-08T08:14:37.924Z,7.87
2023-03-08T08:17:04.758Z,13.43
2023-03-08T08:19:32.140Z,9.37
2023-03-08T08:21:59.430Z,4.17
2023-03-08T08:24:26.944Z,4.90
2023-03-08T08:26:53.829Z,5.00
2023-03-08T08:29:20.992Z,5.23
2023-03-08T08:31:47.588Z,4.93
2023-03-08T08:34:15.561Z,3.90
2023-03-08T08:36:42.066Z,3.60
2023-03-08T08:39:08.759Z,3.87
2023-03-08T08:41:35.268Z,4.57
2023-03-08T08:44:01.755Z,3.60
2023-03-08T08:46:28.885Z,2.80
2023-03-08T08:48:55.983Z,3.67
2023-03-08T08:51:22.662Z,5.17
2023-03-08T08:53:49.589Z,2.33
2023-03-08T08:56:28.402Z,3.43
2023-03-08T08:58:56.915Z,2.37
2023-03-08T09:01:26.898Z,3.73
2023-03-08T09:03:54.224Z,4.50
2023-03-08T09:06:23.092Z,3.00
2023-03-08T09:08:54.966Z,5.93
2023-03-08T09:11:22.124Z,2.23
2023-03-08T09:13:48.804Z,2.53
2023-03-08T09:16:22.307Z,2.20
2023-03-08T09:18:49.115Z,2.33
2023-03-08T09:21:16.617Z,3.50
2023-03-08T09:23:43.835Z,1.90
2023-03-08T09:26:10.894Z,3.17
2023-03-08T09:28:38.612Z,3.93
2023-03-08T09:31:12.898Z,3.10
2023-03-08T09:33:41.934Z,5.10
2023-03-08T09:36:08.815Z,2.20
2023-03-08T09:38:35.573Z,2.40
2023-03-08T09:41:14.769Z,1.40
2023-03-08T09:43:59.406Z,2.10
2023-03-08T09:46:34.125Z,2.70
2023-03-08T09:49:03.215Z,1.73
2023-03-08T09:51:36.198Z,1.77
2023-03-08T09:54:08.257Z,2.13
2023-03-08T09:56:46.669Z,5.60
2023-03-08T09:59:23.979Z,2.57
2023-03-08T10:01:56.651Z,3.93
2023-03-08T10:04:35.779Z,2.83
2023-03-08T10:07:16.417Z,3.57
2023-03-08T10:09:55.848Z,3.53
2023-03-08T10:12:40.660Z,2.50
2023-03-08T10:15:20.537Z,2.20
2023-03-08T10:17:55.908Z,3.67
2023-03-08T10:20:28.193Z,2.47
2023-03-08T10:23:18.346Z,3.13
2023-03-08T10:25:45.817Z,3.23
2023-03-08T10:28:15.750Z,2.13
2023-03-08T10:30:52.583Z,2.37
2023-03-08T10:33:24.510Z,2.80
2023-03-08T10:36:06.670Z,2.50
2023-03-08T10:38:35.158Z,2.40
2023-03-08T10:41:12.986Z,3.80
2023-03-08T10:43:44.969Z,4.03
2023-03-08T10:46:14.465Z,4.93
2023-03-08T10:48:41.432Z,3.37
2023-03-08T10:51:17.845Z,2.10
2023-03-08T10:54:04.631Z,3.57
2023-03-08T10:56:45.194Z,3.20
2023-03-08T10:59:33.047Z,4.87
2023-03-08T11:02:18.373Z,3.73
2023-03-08T11:05:00.824Z,2.40
2023-03-08T11:07:33.492Z,3.70
2023-03-08T11:10:12.310Z,3.87
2023-03-08T11:12:39.529Z,4.10
2023-03-08T11:15:17.316Z,3.10
2023-03-08T11:18:04.148Z,5.63
2023-03-08T11:20:45.441Z,3.40
2023-03-08T11:23:24.101Z,3.23
2023-03-08T11:26:06.708Z,3.30
2023-03-08T11:29:06.099Z,2.33
2023-03-08T11:31:47.440Z,2.43
2023-03-08T11:34:16.939Z,3.73
2023-03-08T11:36:53.217Z,3.33
2023-03-08T11:39:31.259Z,2.93
2023-03-08T11:42:06.513Z,2.90
2023-03-08T11:44:51.299Z,3.33
2023-03-08T11:47:38.397Z,6.37
2023-03-08T11:50:10.048Z,3.43
2023-03-08T11:52:53.504Z,3.37
2023-03-08T11:55:20.799Z,4.40
2023-03-08T11:57:56.066Z,4.13
2023-03-08T12:00:30.691Z,3.27
2023-03-08T12:03:05.468Z,3.07
2023-03-08T12:05:41.149Z,4.20
2023-03-08T12:08:14.175Z,2.70
2023-03-08T12:10:56.767Z,3.30
2023-03-08T12:13:38.425Z,4.93
2023-03-08T12:16:29.249Z,3.07
2023-03-08T12:19:20.525Z,3.67
2023-03-08T12:22:05.462Z,4.63
2023-03-08T12:24:41.131Z,3.63
2023-03-08T12:27:22.857Z,4.33
2023-03-08T12:29:55.395Z,3.50
2023-03-08T12:32:23.687Z,4.97
2023-03-08T12:35:01.576Z,4.07
2023-03-08T12:37:29.945Z,4.40
2023-03-08T12:40:05.862Z,5.30
2023-03-08T12:42:40.406Z,4.13
2023-03-08T12:45:06.858Z,4.07
2023-03-08T12:47:33.387Z,4.07
2023-03-08T12:50:09.986Z,3.63
2023-03-08T12:52:36.778Z,6.00
2023-03-08T12:55:33.579Z,4.23
2023-03-08T12:58:02.797Z,5.53
2023-03-08T13:00:32.813Z,4.17
2023-03-08T13:03:19.533Z,4.67
2023-03-08T13:05:49.842Z,3.70
2023-03-08T13:08:16.410Z,5.87
2023-03-08T13:11:09.271Z,4.53
2023-03-08T13:13:45.849Z,5.27
2023-03-08T13:16:15.247Z,4.10
2023-03-08T13:18:46.552Z,7.07
2023-03-08T13:21:28.239Z,4.90
2023-03-08T13:24:10.218Z,4.90
2023-03-08T13:26:53.214Z,4.30
2023-03-08T13:29:21.044Z,5.30
2023-03-08T13:31:48.721Z,5.13
2023-03-08T13:34:25.867Z,5.03
2023-03-08T13:36:52.616Z,5.77
2023-03-08T13:39:22.640Z,5.80
2023-03-08T13:41:49.369Z,5.30
2023-03-08T13:44:24.823Z,5.57
2023-03-08T13:46:55.151Z,6.27
2023-03-08T13:49:32.476Z,5.77
2023-03-08T13:52:05.202Z,6.63
2023-03-08T13:54:37.809Z,5.63
2023-03-08T13:57:17.241Z,5.60
2023-03-08T13:59:58.890Z,5.40
2023-03-08T14:02:28.375Z,7.43
2023-03-08T14:04:55.869Z,6.80
2023-03-08T14:07:32.102Z,6.40
2023-03-08T14:09:59.297Z,6.57
2023-03-08T14:12:29.924Z,7.30
2023-03-08T14:15:03.645Z,6.73
2023-03-08T14:17:34.115Z,8.30
2023-03-08T14:20:07.002Z,7.50
2023-03-08T14:22:40.306Z,7.10
2023-03-08T14:25:21.864Z,6.77
2023-03-08T14:27:48.918Z,6.20
2023-03-08T14:30:27.177Z,7.10
2023-03-08T14:32:59.708Z,6.80
2023-03-08T14:35:29.998Z,7.50
2023-03-08T14:37:57.123Z,6.20
2023-03-08T14:40:28.813Z,7.60
2023-03-08T14:42:58.286Z,7.60
2023-03-08T14:45:33.977Z,8.37
2023-03-08T14:48:03.050Z,8.10
2023-03-08T14:50:32.795Z,8.57
2023-03-08T14:53:02.478Z,9.90
2023-03-08T14:55:32.337Z,7.90
2023-03-08T14:58:11.665Z,9.23
2023-03-08T15:00:49.188Z,9.13
2023-03-08T15:03:15.646Z,9.20
2023-03-08T15:05:42.267Z,8.77
2023-03-08T15:08:13.257Z,9.10
2023-03-08T15:10:41.198Z,9.57
2023-03-08T15:13:14.597Z,9.73
2023-03-08T15:15:41.285Z,9.43
2023-03-08T15:18:07.918Z,9.40
2023-03-08T15:20:35.584Z,10.03
2023-03-08T15:23:06.135Z,9.70
2023-03-08T15:25:38.622Z,10.10
2023-03-08T15:28:06.510Z,9.90
2023-03-08T15:30:33.444Z,11.47
2023-03-08T15:33:01.743Z,11.27
2023-03-08T15:35:28.241Z,10.13
2023-03-08T15:37:54.701Z,13.80
2023-03-08T15:40:27.493Z,11.30
2023-03-08T15:42:54.677Z,11.47
2023-03-08T15:45:21.612Z,10.43
2023-03-08T15:48:08.260Z,10.20
2023-03-08T15:50:34.988Z,11.00
2023-03-08T15:53:01.557Z,13.13
2023-03-08T15:55:29.937Z,11.70
2023-03-08T15:57:56.618Z,11.20
2023-03-08T16:00:24.356Z,10.63
2023-03-08T16:02:52.722Z,10.30
2023-03-08T16:05:22.978Z,12.10
2023-03-08T16:07:57.830Z,11.47
2023-03-08T16:10:24.756Z,11.30
2023-03-08T16:12:51.535Z,11.27
2023-03-08T16:15:18.787Z,12.27
2023-03-08T16:17:45.710Z,12.33
2023-03-08T16:20:14.465Z,11.60
2023-03-08T16:22:41.377Z,11.50
2023-03-08T16:25:09.185Z,11.80
2023-03-08T16:27:38.105Z,12.17
2023-03-08T16:30:05.981Z,11.30
2023-03-08T16:32:32.708Z,11.67
2023-03-08T16:35:01.808Z,11.97
2023-03-08T16:37:28.645Z,11.67
2023-03-08T16:39:57.596Z,10.83
2023-03-08T16:42:24.612Z,12.23
2023-03-08T16:44:54.086Z,12.00
2023-03-08T16:47:24.854Z,12.63
2023-03-08T16:49:51.411Z,14.53
2023-03-08T16:52:18.632Z,13.20
2023-03-08T16:54:45.608Z,11.73
2023-03-08T16:57:19.021Z,11.77
2023-03-08T16:59:46.771Z,12.43
2023-03-08T17:02:15.636Z,10.33
2023-03-08T17:04:46.327Z,11.57
2023-03-08T17:07:13.485Z,11.70
2023-03-08T17:09:41.751Z,11.27
2023-03-08T17:12:09.652Z,10.83
2023-03-08T17:14:37.330Z,10.87
2023-03-08T17:17:05.421Z,11.37
2023-03-08T17:19:32.107Z,12.17
2023-03-08T17:21:58.887Z,10.87
2023-03-08T17:24:28.343Z,11.33
2023-03-08T17:26:55.800Z,13.57
2023-03-08T17:29:23.006Z,12.97
2023-03-08T17:31:51.163Z,16.83
2023-03-08T17:34:20.944Z,18.10
2023-03-08T17:36:48.092Z,18.60
2023-03-08T17:39:15.568Z,17.93
2023-03-08T17:41:43.122Z,18.47
2023-03-08T17:44:09.681Z,19.83
2023-03-08T17:46:36.514Z,20.50
2023-03-08T17:49:03.964Z,24.33
2023-03-08T17:51:32.913Z,24.37
2023-03-08T17:54:01.288Z,23.87
2023-03-08T17:56:30.484Z,26.83
2023-03-08T17:58:59.585Z,26.53
2023-03-08T18:01:29.493Z,27.13
2023-03-08T18:03:58.128Z,28.63
2023-03-08T18:06:32.408Z,27.80
2023-03-08T18:09:01.520Z,27.27
2023-03-08T18:11:29.116Z,26.93
2023-03-08T18:13:56.369Z,26.10
2023-03-08T18:16:23.907Z,26.33
2023-03-08T18:18:51.139Z,27.00
2023-03-08T18:21:18.789Z,27.93
2023-03-08T18:23:48.089Z,27.57
2023-03-08T18:26:17.024Z,31.13
2023-03-08T18:28:43.773Z,29.23
2023-03-08T18:31:15.187Z,26.37
2023-03-08T18:33:44.772Z,27.73
2023-03-08T18:36:11.717Z,26.17
2023-03-08T18:38:39.020Z,26.30
2023-03-08T18:41:22.677Z,26.43
2023-03-08T18:43:51.591Z,25.23
2023-03-08T18:46:18.722Z,25.20
2023-03-08T18:51:17.682Z,23.60
2023-03-08T18:53:44.507Z,27.30
2023-03-08T18:56:12.142Z,28.20
2023-03-08T18:58:38.859Z,25.90
2023-03-08T19:01:14.072Z,23.90
2023-03-08T19:03:41.767Z,22.80
2023-03-08T19:06:09.186Z,25.93
2023-03-08T19:08:36.904Z,28.93
2023-03-08T19:11:12.516Z,26.20
2023-03-08T19:13:39.237Z,27.77
2023-03-08T19:16:07.357Z,29.40
2023-03-08T19:18:34.372Z,26.20
2023-03-08T19:21:01.313Z,27.20
2023-03-08T19:23:28.221Z,28.03
2023-03-08T19:26:13.820Z,28.43
2023-03-08T19:28:40.663Z,27.60
2023-03-08T19:31:16.542Z,30.47
2023-03-08T19:33:49.883Z,30.97
2023-03-08T19:36:17.163Z,27.20
2023-03-08T19:38:44.277Z,30.87
2023-03-08T19:41:11.364Z,29.03
2023-03-08T19:43:37.972Z,30.30
2023-03-08T19:46:04.921Z,30.77
2023-03-08T19:48:32.177Z,32.67
2023-03-08T19:50:59.120Z,30.33
2023-03-08T19:53:25.957Z,31.77
2023-03-08T19:55:54.373Z,31.80
2023-03-08T19:58:23.660Z,29.13
2023-03-08T20:00:50.567Z,31.80
2023-03-08T20:03:17.891Z,30.70
2023-03-08T20:05:47.464Z,29.50
2023-03-08T20:08:14.522Z,32.33
2023-03-08T20:10:42.135Z,29.60
2023-03-08T20:13:08.716Z,33.60
2023-03-08T20:15:35.372Z,31.97
2023-03-08T20:18:01.882Z,32.57
2023-03-08T20:20:28.612Z,33.53
2023-03-08T20:22:55.210Z,32.67
2023-03-08T20:25:21.729Z,34.73
2023-03-08T20:27:48.213Z,34.70
2023-03-08T20:30:15.041Z,31.60
2023-03-08T20:32:41.650Z,31.10
2023-03-08T20:35:12.838Z,31.20
2023-03-08T20:37:39.661Z,30.70
2023-03-08T20:40:07.316Z,36.03
2023-03-08T20:42:36.890Z,28.73
2023-03-08T20:45:06.828Z,28.33
2023-03-08T20:47:33.371Z,29.83
2023-03-08T20:50:00.000Z,29.03
2023-03-08T20:52:26.493Z,30.20
2023-03-08T20:54:53.028Z,29.83
2023-03-08T20:57:19.537Z,28.67
2023-03-08T20:59:46.011Z,27.17
2023-03-08T21:02:12.691Z,28.20
2023-03-08T21:04:39.166Z,31.57
2023-03-08T21:07:06.761Z,30.37
2023-03-08T21:09:34.037Z,30.47
2023-03-08T21:12:00.604Z,26.67
2023-03-08T21:14:29.064Z,27.80
2023-03-08T21:16:55.645Z,25.43
2023-03-08T21:19:23.923Z,28.93
2023-03-08T21:21:51.453Z,26.97
2023-03-08T21:24:21.237Z,29.23
2023-03-08T21:26:47.759Z,28.10
2023-03-08T21:29:17.728Z,25.90
2023-03-08T21:31:48.449Z,26.23
2023-03-08T21:34:17.072Z,26.33
2023-03-08T21:36:44.744Z,28.33
2023-03-08T21:39:12.280Z,25.53
2023-03-08T21:41:41.417Z,27.57
2023-03-08T21:44:12.675Z,25.47
2023-03-08T21:46:40.731Z,25.90
2023-03-08T21:49:07.923Z,24.53
2023-03-08T21:51:34.817Z,24.23
2023-03-08T21:54:01.372Z,25.63
2023-03-08T21:56:27.920Z,25.03
2023-03-08T21:58:55.509Z,25.23
2023-03-08T22:01:25.756Z,26.73
2023-03-08T22:03:53.144Z,25.93
2023-03-08T22:06:20.572Z,25.87
2023-03-08T22:08:47.868Z,25.57
2023-03-08T22:11:15.307Z,24.43
2023-03-08T22:13:42.946Z,25.73
2023-03-08T22:16:09.829Z,24.30
2023-03-08T22:18:36.378Z,25.17
2023-03-08T22:21:02.919Z,22.90
2023-03-08T22:23:29.464Z,26.07
2023-03-08T22:25:55.998Z,27.60
2023-03-08T22:28:22.572Z,24.53
2023-03-08T22:30:49.197Z,23.50
2023-03-08T22:33:15.745Z,24.57
2023-03-08T22:35:46.800Z,24.73
2023-03-08T22:38:13.520Z,23.33
2023-03-08T22:40:43.319Z,23.37
2023-03-08T22:43:10.676Z,23.13
2023-03-08T22:45:37.377Z,22.93
2023-03-08T22:48:04.667Z,23.13
2023-03-08T22:50:31.178Z,22.17
2023-03-08T22:52:57.700Z,22.53
2023-03-08T22:55:24.226Z,21.57
2023-03-08T22:57:50.717Z,22.63
2023-03-08T23:00:17.404Z,20.10
2023-03-08T23:02:45.902Z,22.87
2023-03-08T23:05:18.121Z,22.50
2023-03-08T23:07:45.424Z,21.20
2023-03-08T23:10:13.348Z,23.27
2023-03-08T23:12:40.632Z,22.97
2023-03-08T23:15:08.727Z,22.83
2023-03-08T23:17:35.976Z,21.90
2023-03-08T23:20:03.964Z,20.83
2023-03-08T23:22:30.636Z,20.17
2023-03-08T23:24:57.264Z,19.43
2023-03-08T23:27:23.975Z,21.40
2023-03-08T23:29:53.841Z,21.40
2023-03-08T23:32:20.639Z,22.57
2023-03-08T23:34:47.352Z,22.77
2023-03-08T23:37:13.996Z,18.50
2023-03-08T23:39:40.572Z,19.93
2023-03-08T23:42:07.337Z,20.17
2023-03-08T23:44:33.901Z,20.07
2023-03-08T23:47:00.779Z,19.97
2023-03-08T23:49:27.416Z,21.50
2023-03-08T23:51:54.070Z,20.20
2023-03-08T23:54:20.619Z,19.47
2023-03-08T23:56:47.202Z,18.17
2023-03-08T23:59:21.971Z,19.87
